Time;durP1;ratioP1;P1;durP2;ratioP2;P2;SDS_P1;SDS_P2;PMS_P1;PMS_P2;Temp;Humidity;BMP_temperature;BMP_pressure;BME280_temperature;BME280_humidity;BME280_pressure;Samples;Min_cycle;Max_cycle;Signal;HPM_P1;HPM_P2
2023/04/03 00:01:28;;;;;;;1999.90;999.90;;;;;;;2.30;100.00;94946.66;5063506;28;20165;-59
2023/04/03 00:03:54;;;;;;;1999.90;999.90;;;;;;;2.35;100.00;94942.88;5064064;28;20238;-59
2023/04/03 00:06:20;;;;;;;1999.90;999.90;;;;;;;2.32;100.00;94949.78;5063403;28;20233;-60
2023/04/03 00:08:45;;;;;;;1999.90;999.90;;;;;;;2.33;100.00;94929.03;5064068;28;20166;-59
2023/04/03 00:11:10;;;;;;;1999.90;999.90;;;;;;;2.41;100.00;94930.69;5063794;28;20166;-59
2023/04/03 00:13:36;;;;;;;1999.90;999.90;;;;;;;2.41;100.00;94942.22;5067707;28;20173;-59
2023/04/03 00:16:03;;;;;;;1999.90;999.90;;;;;;;2.42;100.00;94938.41;5067692;28;20166;-59
2023/04/03 00:18:28;;;;;;;1999.90;999.90;;;;;;;2.46;100.00;94939.22;5067192;28;20177;-59
2023/04/03 00:20:54;;;;;;;1999.90;999.90;;;;;;;2.38;100.00;94937.56;5066746;28;20166;-58
2023/04/03 00:23:19;;;;;;;1999.90;999.90;;;;;;;2.43;100.00;94934.56;5067377;28;20174;-58
2023/04/03 00:25:45;;;;;;;1999.90;999.90;;;;;;;2.37;100.00;94933.31;5066785;28;20166;-58
2023/04/03 00:28:10;;;;;;;1999.90;999.90;;;;;;;2.35;100.00;94935.59;5066833;28;20194;-59
2023/04/03 00:30:36;;;;;;;1999.90;999.90;;;;;;;2.44;100.00;94930.72;5067348;28;20275;-59
2023/04/03 00:33:01;;;;;;;1999.90;999.90;;;;;;;2.43;100.00;94929.16;5067160;28;20273;-60
2023/04/03 00:35:27;;;;;;;1999.90;999.90;;;;;;;2.45;100.00;94929.56;5066855;28;20170;-60
2023/04/03 00:37:55;;;;;;;1999.90;999.90;;;;;;;2.49;100.00;94922.34;5066972;28;20174;-60
2023/04/03 00:40:22;;;;;;;1999.90;999.90;;;;;;;2.44;100.00;94927.25;5067311;28;20169;-60
2023/04/03 00:42:51;;;;;;;1999.90;999.90;;;;;;;2.45;100.00;94931.50;5066692;28;20216;-60
2023/04/03 00:45:26;;;;;;;1999.90;999.90;;;;;;;2.36;100.00;94929.06;5066594;28;20176;-59
2023/04/03 00:47:52;;;;;;;1999.90;999.90;;;;;;;2.30;100.00;94930.50;5067182;28;20174;-59
2023/04/03 00:50:18;;;;;;;1999.90;999.90;;;;;;;2.26;100.00;94928.91;5066756;28;20213;-60
2023/04/03 00:52:46;;;;;;;1999.90;999.90;;;;;;;2.29;100.00;94926.25;5066608;28;20174;-60
2023/04/03 00:55:12;;;;;;;1999.90;999.90;;;;;;;2.26;100.00;94929.66;5066628;28;20194;-60
2023/04/03 00:57:38;;;;;;;1999.90;999.90;;;;;;;2.36;100.00;94928.28;5066422;28;20170;-60
2023/04/03 01:00:10;;;;;;;1999.90;999.90;;;;;;;2.28;100.00;94930.09;5066875;28;20209;-60
2023/04/03 01:02:36;;;;;;;1999.90;999.90;;;;;;;2.24;100.00;94926.56;5066662;28;20174;-59
2023/04/03 01:05:02;;;;;;;1999.90;999.90;;;;;;;2.11;100.00;94938.66;5066385;28;20170;-60
2023/04/03 01:07:30;;;;;;;1999.90;999.90;;;;;;;2.19;100.00;94939.56;5066795;28;20181;-61
2023/04/03 01:09:59;;;;;;;1999.90;999.90;;;;;;;2.28;100.00;94938.19;5066767;28;20296;-60
2023/04/03 01:12:26;;;;;;;1999.90;999.90;;;;;;;2.33;100.00;94924.41;5066643;28;20178;-60
2023/04/03 01:14:58;;;;;;;1999.90;999.90;;;;;;;2.25;100.00;94944.28;5066114;28;20174;-60
2023/04/03 01:17:33;;;;;;;1999.90;999.90;;;;;;;2.29;100.00;94926.25;5066447;28;20176;-61
2023/04/03 01:20:21;;;;;;;1999.90;999.90;;;;;;;2.35;100.00;94934.81;5066549;28;20174;-59
2023/04/03 01:23:05;;;;;;;1999.90;999.90;;;;;;;2.43;100.00;94933.78;5064764;28;20193;-60
2023/04/03 01:25:31;;;;;;;1999.90;999.90;;;;;;;2.40;100.00;94937.19;5066550;28;20169;-60
2023/04/03 01:27:56;;;;;;;1999.90;999.90;;;;;;;2.34;100.00;94935.97;5066498;28;20177;-60
2023/04/03 01:30:27;;;;;;;1999.90;999.90;;;;;;;2.42;100.00;94938.41;5066130;28;20226;-60
2023/04/03 01:32:53;;;;;;;1999.90;999.90;;;;;;;2.36;100.00;94929.06;5066397;28;20241;-59
2023/04/03 01:35:18;;;;;;;1999.90;999.90;;;;;;;2.47;100.00;94938.09;5065742;28;20169;-59
2023/04/03 01:37:43;;;;;;;1999.90;999.90;;;;;;;2.37;100.00;94941.38;5066265;28;20257;-60
2023/04/03 01:40:09;;;;;;;1999.90;999.90;;;;;;;2.28;100.00;94948.97;5065694;28;20176;-59
2023/04/03 01:42:34;;;;;;;1999.90;999.90;;;;;;;2.32;100.00;94939.00;5065339;28;20173;-59
2023/04/03 01:45:00;;;;;;;1999.90;999.90;;;;;;;2.31;100.00;94942.84;5066127;28;20187;-59
2023/04/03 01:47:25;;;;;;;1999.90;999.90;;;;;;;2.32;100.00;94943.59;5065622;28;20224;-59
2023/04/03 01:49:50;;;;;;;1999.90;999.90;;;;;;;2.35;100.00;94940.97;5065433;28;20202;-60
2023/04/03 01:52:16;;;;;;;1999.90;999.90;;;;;;;2.44;100.00;94936.09;5065426;28;20167;-60
2023/04/03 01:54:41;;;;;;;1999.90;999.90;;;;;;;2.39;100.00;94935.63;5065546;28;20185;-60
2023/04/03 01:57:06;;;;;;;1999.90;999.90;;;;;;;2.41;100.00;94923.34;5066198;28;20166;-60
2023/04/03 01:59:32;;;;;;;1999.90;999.90;;;;;;;2.33;100.00;94934.41;5065564;28;20174;-60
2023/04/03 02:01:57;;;;;;;1999.90;999.90;;;;;;;2.45;100.00;94926.13;5065302;28;20254;-60
2023/04/03 02:04:23;;;;;;;1999.90;999.90;;;;;;;2.43;100.00;94925.69;5065225;28;20177;-60
2023/04/03 02:06:48;;;;;;;1999.90;999.90;;;;;;;2.46;100.00;94928.44;5065167;28;20216;-60
2023/04/03 02:09:14;;;;;;;1999.90;999.90;;;;;;;2.51;100.00;94920.03;5064989;28;20194;-60
2023/04/03 02:11:39;;;;;;;1999.90;999.90;;;;;;;2.36;100.00;94934.44;5065016;28;20162;-61
2023/04/03 02:14:05;;;;;;;1999.90;999.90;;;;;;;2.52;100.00;94926.97;5065132;28;20165;-61
2023/04/03 02:16:30;;;;;;;1999.90;999.90;;;;;;;2.62;100.00;94925.59;5064500;28;20211;-61
2023/04/03 02:18:56;;;;;;;1999.90;999.90;;;;;;;2.59;100.00;94924.38;5065346;28;20166;-62
2023/04/03 02:21:22;;;;;;;1999.90;999.90;;;;;;;2.55;100.00;94926.25;5064880;28;20172;-61
2023/04/03 02:23:47;;;;;;;1999.90;999.90;;;;;;;2.60;100.00;94919.78;5064717;28;20166;-61
2023/04/03 02:26:15;;;;;;;1999.90;999.90;;;;;;;2.57;100.00;94926.69;5064959;28;20444;-61
2023/04/03 02:28:43;;;;;;;1999.90;999.90;;;;;;;2.55;100.00;94925.50;5064839;28;20209;-61
2023/04/03 02:31:10;;;;;;;1999.90;999.90;;;;;;;2.48;100.00;94931.53;5064519;28;20249;-61
2023/04/03 02:33:36;;;;;;;1999.90;999.90;;;;;;;2.51;100.00;94930.81;5063994;28;20241;-61
2023/04/03 02:36:06;;;;;;;1999.90;999.90;;;;;;;2.50;100.00;94931.97;5064713;28;20197;-61
2023/04/03 02:38:32;;;;;;;1999.90;999.90;;;;;;;2.50;100.00;94940.06;5064703;28;20177;-61
2023/04/03 02:41:02;;;;;;;1999.90;999.90;;;;;;;2.51;100.00;94933.53;5064430;28;20201;-61
2023/04/03 02:43:27;;;;;;;1999.90;999.90;;;;;;;2.47;100.00;94951.56;5064380;28;20181;-61
2023/04/03 02:45:53;;;;;;;1999.90;999.90;;;;;;;2.47;100.00;94950.75;5064432;28;20177;-61
2023/04/03 02:48:18;;;;;;;1999.90;999.90;;;;;;;2.42;100.00;94957.25;5064457;28;20170;-61
2023/04/03 02:50:43;;;;;;;1999.90;999.90;;;;;;;2.54;100.00;94957.03;5064192;28;20224;-61
2023/04/03 02:53:09;;;;;;;1999.90;999.90;;;;;;;2.45;100.00;94959.19;5064289;28;20170;-61
2023/04/03 02:55:34;;;;;;;1999.90;999.90;;;;;;;2.37;100.00;94968.31;5064013;28;20240;-61
2023/04/03 02:57:59;;;;;;;1999.90;999.90;;;;;;;2.45;100.00;94959.19;5064193;28;20244;-61
2023/04/03 03:00:25;;;;;;;1999.90;999.90;;;;;;;2.49;100.00;94951.19;5064756;28;20219;-60
2023/04/03 03:02:50;;;;;;;1999.90;999.90;;;;;;;2.52;100.00;94943.16;5064298;28;20177;-62
2023/04/03 03:05:16;;;;;;;1999.90;999.90;;;;;;;2.48;100.00;94936.94;5064545;28;20172;-61
2023/04/03 03:07:41;;;;;;;1999.90;999.90;;;;;;;2.56;100.00;94932.44;5064584;28;20177;-62
2023/04/03 03:10:07;;;;;;;1999.90;999.90;;;;;;;2.50;100.00;94934.66;5064468;28;20197;-61
2023/04/03 03:12:32;;;;;;;1999.90;999.90;;;;;;;2.48;100.00;94931.53;5064485;28;20170;-60
2023/04/03 03:14:57;;;;;;;1999.90;999.90;;;;;;;2.47;100.00;94948.84;5064402;28;20173;-61
2023/04/03 03:17:23;;;;;;;1999.90;999.90;;;;;;;2.47;100.00;94953.47;5063893;28;20262;-60
2023/04/03 03:19:48;;;;;;;1999.90;999.90;;;;;;;2.49;100.00;94965.44;5064066;28;20173;-61
2023/04/03 03:22:13;;;;;;;1999.90;999.90;;;;;;;2.46;100.00;94970.75;5064296;28;20170;-61
2023/04/03 03:24:39;;;;;;;1999.90;999.90;;;;;;;2.53;100.00;94968.97;5063773;28;20206;-61
2023/04/03 03:27:04;;;;;;;1999.90;999.90;;;;;;;2.39;100.00;94982.22;5064181;28;20415;-61
2023/04/03 03:29:29;;;;;;;1999.90;999.90;;;;;;;2.47;100.00;94986.56;5063217;28;20295;-61
2023/04/03 03:31:55;;;;;;;1999.90;999.90;;;;;;;2.51;100.00;94989.31;5063728;28;20208;-61
2023/04/03 03:34:20;;;;;;;1999.90;999.90;;;;;;;2.52;100.00;94998.97;5063872;28;20181;-61
2023/04/03 03:36:46;;;;;;;1999.90;999.90;;;;;;;2.58;100.00;95001.00;5063604;28;20174;-61
2023/04/03 03:39:11;;;;;;;1999.90;999.90;;;;;;;2.60;100.00;95001.41;5063675;28;20169;-61
2023/04/03 03:41:36;;;;;;;1999.90;999.90;;;;;;;2.61;100.00;95016.44;5063611;28;20200;-59
2023/04/03 03:44:02;;;;;;;1999.90;999.90;;;;;;;2.45;100.00;95034.63;5064105;28;20177;-60
2023/04/03 03:46:27;;;;;;;1999.90;999.90;;;;;;;2.51;100.00;95032.41;5067041;28;20176;-60
2023/04/03 03:48:53;;;;;;;1999.90;999.90;;;;;;;2.44;100.00;95037.72;5068151;28;20197;-60
2023/04/03 03:51:18;;;;;;;1999.90;999.90;;;;;;;2.45;100.00;95048.09;5067693;28;20170;-60
2023/04/03 03:53:43;;;;;;;1999.90;999.90;;;;;;;2.45;100.00;95050.81;5067755;28;20208;-60
2023/04/03 03:56:09;;;;;;;1999.90;999.90;;;;;;;2.42;100.00;95067.72;5068070;28;20173;-60
2023/04/03 03:58:35;;;;;;;1999.90;999.90;;;;;;;2.50;100.00;95060.50;5067843;28;20170;-60
2023/04/03 04:01:05;;;;;;;1999.90;999.90;;;;;;;2.50;100.00;95061.28;5067527;28;20170;-59
2023/04/03 04:03:30;;;;;;;1999.90;999.90;;;;;;;2.50;100.00;95069.38;5067772;28;20248;-59
2023/04/03 04:05:56;;;;;;;1999.90;999.90;;;;;;;2.55;100.00;95054.84;5067491;28;20169;-59
2023/04/03 04:08:21;;;;;;;1999.90;999.90;;;;;;;2.56;100.00;95059.88;5067412;28;20177;-60
2023/04/03 04:10:47;;;;;;;1999.90;999.90;;;;;;;2.54;100.00;95058.66;5067321;28;20217;-60
2023/04/03 04:13:12;;;;;;;1999.90;999.90;;;;;;;2.52;100.00;95061.69;5067846;28;20181;-60
2023/04/03 04:15:37;;;;;;;1999.90;999.90;;;;;;;2.41;100.00;95065.38;5067316;28;20193;-60
2023/04/03 04:18:03;;;;;;;1999.90;999.90;;;;;;;2.47;100.00;95075.47;5067195;28;20360;-61
2023/04/03 04:20:28;;;;;;;1999.90;999.90;;;;;;;2.50;100.00;95073.97;5067024;28;20373;-60
2023/04/03 04:22:54;;;;;;;1999.90;999.90;;;;;;;2.54;100.00;95058.66;5067124;28;20228;-60
2023/04/03 04:25:19;;;;;;;1999.90;999.90;;;;;;;2.59;100.00;95059.13;5067011;28;20213;-60
2023/04/03 04:27:48;;;;;;;1999.90;999.90;;;;;;;2.55;100.00;95060.22;5067611;28;20170;-60
2023/04/03 04:30:13;;;;;;;1999.90;999.90;;;;;;;2.53;100.00;95057.88;5066868;28;20238;-61
2023/04/03 04:32:39;;;;;;;1999.90;999.90;;;;;;;2.53;100.00;95065.97;5066914;28;20176;-60
2023/04/03 04:35:05;;;;;;;1999.90;999.90;;;;;;;2.42;100.00;95065.00;5067213;28;20204;-61
2023/04/03 04:37:33;;;;;;;1999.90;999.90;;;;;;;2.50;100.00;95071.28;5067088;28;20174;-60
2023/04/03 04:40:02;;;;;;;1999.90;999.90;;;;;;;2.57;100.00;95064.09;5067431;28;20174;-63
2023/04/03 04:42:27;;;;;;;1999.90;999.90;;;;;;;2.51;100.00;95076.31;5066727;28;20197;-62
2023/04/03 04:44:53;;;;;;;1999.90;999.90;;;;;;;2.65;100.00;95070.38;5066939;28;20233;-60
2023/04/03 04:47:18;;;;;;;1999.90;999.90;;;;;;;2.72;100.00;95071.28;5066540;28;20174;-59
2023/04/03 04:49:43;;;;;;;1999.90;999.90;;;;;;;2.50;100.00;95077.47;5066497;28;20193;-60
2023/04/03 04:52:09;;;;;;;1999.90;999.90;;;;;;;2.55;100.00;95087.94;5066573;28;20177;-61
2023/04/03 04:54:34;;;;;;;1999.90;999.90;;;;;;;2.56;100.00;95089.50;5066680;28;20185;-65
2023/04/03 04:57:00;;;;;;;1999.90;999.90;;;;;;;2.50;100.00;95107.09;5065476;28;20176;-62
2023/04/03 04:59:25;;;;;;;1999.90;999.90;;;;;;;2.49;100.00;95110.16;5066715;28;20170;-62
2023/04/03 05:01:51;;;;;;;1999.90;999.90;;;;;;;2.41;100.00;95130.78;5066898;28;20170;-62
2023/04/03 05:04:16;;;;;;;1999.90;999.90;;;;;;;2.47;100.00;95132.06;5066206;28;20244;-61
2023/04/03 05:06:42;;;;;;;1999.90;999.90;;;;;;;2.51;100.00;95129.41;5066832;28;20185;-62
2023/04/03 05:09:08;;;;;;;1999.90;999.90;;;;;;;2.54;100.00;95136.78;5066047;28;20439;-61
2023/04/03 05:11:34;;;;;;;1999.90;999.90;;;;;;;2.51;100.00;95145.59;5066604;28;20170;-62
2023/04/03 05:13:59;;;;;;;1999.90;999.90;;;;;;;2.53;100.00;95144.09;5066089;28;20174;-62
2023/04/03 05:16:25;;;;;;;1999.90;999.90;;;;;;;2.59;100.00;95150.75;5066524;28;20181;-62
2023/04/03 05:18:50;;;;;;;1999.90;999.90;;;;;;;2.54;100.00;95151.03;5066066;28;20178;-62
2023/04/03 05:21:18;;;;;;;1999.90;999.90;;;;;;;2.52;100.00;95172.16;5066487;28;20174;-61
2023/04/03 05:23:43;;;;;;;1999.90;999.90;;;;;;;2.47;100.00;95172.47;5065596;28;20170;-61
2023/04/03 05:26:09;;;;;;;1999.90;999.90;;;;;;;2.48;100.00;95184.03;5066155;28;20170;-61
2023/04/03 05:28:34;;;;;;;1999.90;999.90;;;;;;;2.45;100.00;95193.59;5065760;28;20226;-61
2023/04/03 05:31:00;;;;;;;1999.90;999.90;;;;;;;2.50;100.00;95197.91;5065675;28;20208;-63
2023/04/03 05:33:26;;;;;;;1999.90;999.90;;;;;;;2.52;100.00;95201.81;5065858;28;20170;-62
2023/04/03 05:35:52;;;;;;;1999.90;999.90;;;;;;;2.54;100.00;95207.63;5066167;28;20170;-61
2023/04/03 05:38:17;;;;;;;1999.90;999.90;;;;;;;2.55;100.00;95211.88;5066073;28;20193;-61
2023/04/03 05:40:43;;;;;;;1999.90;999.90;;;;;;;2.55;100.00;95211.88;5066087;28;20170;-62
2023/04/03 05:43:08;;;;;;;1999.90;999.90;;;;;;;2.58;100.00;95216.56;5065782;28;20192;-62
2023/04/03 05:45:34;;;;;;;1999.90;999.90;;;;;;;2.64;100.00;95217.06;5065974;28;20174;-61
2023/04/03 05:47:59;;;;;;;1999.90;999.90;;;;;;;2.68;100.00;95221.38;5065820;28;20181;-61
2023/04/03 05:50:25;;;;;;;1999.90;999.90;;;;;;;2.64;100.00;95225.13;5065907;28;20201;-62
2023/04/03 05:52:55;;;;;;;1999.90;999.90;;;;;;;2.78;100.00;95204.63;5065154;28;20193;-62
2023/04/03 05:55:20;;;;;;;1999.90;999.90;;;;;;;2.84;100.00;95213.97;5065336;28;20190;-64
2023/04/03 05:57:45;;;;;;;1999.90;999.90;;;;;;;2.77;100.00;95223.84;5065913;28;20241;-62
2023/04/03 06:00:15;;;;;;;1999.90;999.90;;;;;;;2.73;100.00;95233.78;5065362;28;20216;-62
2023/04/03 06:02:41;;;;;;;1999.90;999.90;;;;;;;2.77;100.00;95240.78;5065137;28;20170;-64
2023/04/03 06:05:08;;;;;;;1999.90;999.90;;;;;;;2.80;100.00;95256.25;5064438;28;20205;-65
2023/04/03 06:07:34;;;;;;;1999.90;999.90;;;;;;;2.67;100.00;95279.13;5065110;28;20178;-62
2023/04/03 06:10:00;;;;;;;1999.90;999.90;;;;;;;2.67;100.00;95278.34;5063804;28;20486;-62
2023/04/03 06:12:25;;;;;;;1999.90;999.90;;;;;;;2.79;100.00;95281.66;5064952;28;20177;-62
2023/04/03 06:14:51;;;;;;;1999.90;999.90;;;;;;;2.83;100.00;95290.59;5065286;28;20193;-62
2023/04/03 06:17:17;;;;;;;1999.90;999.90;;;;;;;2.76;100.00;95293.16;5065514;28;20178;-62
2023/04/03 06:19:43;;;;;;;1999.90;999.90;;;;;;;2.83;100.00;95290.59;5064717;28;20186;-62
2023/04/03 06:22:08;;;;;;;1999.90;999.90;;;;;;;2.80;100.00;95299.38;5065101;28;20237;-63
2023/04/03 06:24:35;;;;;;;1999.90;999.90;;;;;;;2.98;100.00;95300.50;5064775;28;20208;-62
2023/04/03 06:27:01;;;;;;;1999.90;999.90;;;;;;;2.83;100.00;95320.25;5064794;28;20170;-62
2023/04/03 06:29:26;;;;;;;1999.90;999.90;;;;;;;2.93;100.00;95314.28;5064270;28;20227;-63
2023/04/03 06:31:52;;;;;;;1999.90;999.90;;;;;;;2.96;100.00;95332.44;5064486;28;20170;-60
2023/04/03 06:34:18;;;;;;;1999.90;999.90;;;;;;;2.93;100.00;95341.25;5064443;28;20174;-61
2023/04/03 06:36:44;;;;;;;1999.90;999.90;;;;;;;2.98;100.00;95359.03;5064079;28;20170;-60
2023/04/03 06:39:16;;;;;;;1999.90;999.90;;;;;;;2.98;100.00;95376.00;5064410;28;20213;-60
2023/04/03 06:41:42;;;;;;;1999.90;999.90;;;;;;;2.93;100.00;95394.38;5064860;28;20177;-61
2023/04/03 06:44:10;;;;;;;1999.90;999.90;;;;;;;2.98;100.00;95413.75;5064272;28;20169;-59
2023/04/03 06:46:37;;;;;;;1999.90;999.90;;;;;;;2.89;100.00;95415.91;5064281;28;20170;-59
2023/04/03 06:49:03;;;;;;;1999.90;999.90;;;;;;;3.02;100.00;95420.00;5064242;28;20217;-59
2023/04/03 06:51:29;;;;;;;1999.90;999.90;;;;;;;3.14;100.00;95419.88;5064369;28;20174;-59
2023/04/03 06:53:58;;;;;;;1999.90;999.90;;;;;;;3.23;100.00;95414.25;5064024;28;20193;-59
2023/04/03 06:56:25;;;;;;;1999.90;999.90;;;;;;;3.36;100.00;95424.53;5064649;28;20370;-59
2023/04/03 06:58:51;;;;;;;1999.90;999.90;;;;;;;3.46;100.00;95431.28;5064577;28;20244;-58
2023/04/03 07:01:19;;;;;;;1999.90;999.90;;;;;;;3.32;100.00;95453.38;5064659;28;20237;-59
2023/04/03 07:03:44;;;;;;;1999.90;999.90;;;;;;;3.37;100.00;95474.69;5063992;28;20197;-59
2023/04/03 07:06:12;;;;;;;1999.90;999.90;;;;;;;3.48;100.00;95491.88;5064602;28;20181;-59
2023/04/03 07:08:39;;;;;;;1999.90;999.90;;;;;;;3.55;100.00;95515.53;5064735;28;20297;-59
2023/04/03 07:11:05;;;;;;;1999.90;999.90;;;;;;;3.43;100.00;95532.63;5064462;28;20212;-59
2023/04/03 07:13:31;;;;;;;1999.90;999.90;;;;;;;3.56;100.00;95546.78;5063841;28;20236;-59
2023/04/03 07:15:56;;;;;;;1999.90;999.90;;;;;;;3.71;100.00;95564.06;5064465;28;20170;-59
2023/04/03 07:18:22;;;;;;;1999.90;999.90;;;;;;;3.78;100.00;95572.31;5063870;28;20200;-59
2023/04/03 07:20:47;;;;;;;1999.90;999.90;;;;;;;3.77;100.00;95608.53;5063548;28;20177;-59
2023/04/03 07:23:13;;;;;;;1999.90;999.90;;;;;;;3.54;100.00;95630.81;5064196;28;20174;-59
2023/04/03 07:25:43;;;;;;;1999.90;999.90;;;;;;;3.71;100.00;95634.25;5063491;28;20174;-58
2023/04/03 07:28:09;;;;;;;1999.90;999.90;;;;;;;3.65;100.00;95662.66;5064154;28;20250;-59
2023/04/03 07:30:45;;;;;;;1999.90;999.90;;;;;;;3.80;100.00;95683.44;5064256;28;20225;-59
2023/04/03 07:33:12;;;;;;;1999.90;999.90;;;;;;;3.74;100.00;95682.94;5064448;28;20172;-59
2023/04/03 07:35:38;;;;;;;1999.90;999.90;;;;;;;4.06;100.00;95700.63;5064048;28;20184;-59
2023/04/03 07:38:04;;;;;;;1999.90;999.90;;;;;;;4.08;100.00;95716.47;5064164;28;20179;-59
2023/04/03 07:40:29;;;;;;;1999.90;999.90;;;;;;;3.77;100.00;95730.03;5063678;28;20162;-59
2023/04/03 07:42:56;;;;;;;1999.90;999.90;;;;;;;3.62;100.00;95744.34;5063654;28;20166;-59
2023/04/03 07:45:22;;;;;;;1999.90;999.90;;;;;;;3.67;100.00;95742.16;5064080;28;20166;-59
2023/04/03 07:47:48;;;;;;;1999.90;999.90;;;;;;;3.68;100.00;95761.88;5063981;28;20176;-60
2023/04/03 07:50:13;;;;;;;1999.90;999.90;;;;;;;3.67;100.00;95757.59;5063634;28;20270;-60
2023/04/03 07:52:39;;;;;;;1999.90;999.90;;;;;;;3.92;100.00;95756.22;5063473;28;20166;-60
2023/04/03 07:55:05;;;;;;;1999.90;999.90;;;;;;;3.82;100.00;95775.69;5064023;28;20185;-60
2023/04/03 07:57:30;;;;;;;1999.90;999.90;;;;;;;3.85;100.00;95773.06;5064089;28;20206;-61
2023/04/03 07:59:56;;;;;;;1999.90;999.90;;;;;;;3.97;100.00;95772.97;5063336;28;20166;-60
2023/04/03 08:02:21;;;;;;;1999.90;999.90;;;;;;;4.02;100.00;95769.22;5063476;28;20236;-60
2023/04/03 08:04:47;;;;;;;1999.90;999.90;;;;;;;4.12;100.00;95766.75;5063897;28;20238;-60
2023/04/03 08:07:12;;;;;;;1999.90;999.90;;;;;;;3.98;100.00;95771.06;5063997;28;20225;-61
2023/04/03 08:09:37;;;;;;;1999.90;999.90;;;;;;;3.82;100.00;95778.41;5063698;28;20269;-61
2023/04/03 08:12:03;;;;;;;1999.90;999.90;;;;;;;3.85;100.00;95777.72;5063351;28;20170;-60
2023/04/03 08:14:31;;;;;;;1999.90;999.90;;;;;;;4.07;100.00;95771.66;5063379;28;20168;-60
2023/04/03 08:16:56;;;;;;;1999.90;999.90;;;;;;;4.07;100.00;95766.25;5063250;28;20172;-61
2023/04/03 08:19:21;;;;;;;1999.90;999.90;;;;;;;4.31;100.00;95766.00;5063495;28;20171;-60
2023/04/03 08:21:47;;;;;;;1999.90;999.90;;;;;;;4.14;100.00;95796.09;5063228;28;20192;-60
2023/04/03 08:24:12;;;;;;;1999.90;999.90;;;;;;;4.11;100.00;95807.66;5063184;28;20173;-60
2023/04/03 08:26:38;;;;;;;1999.90;999.90;;;;;;;3.98;100.00;95808.88;5063226;28;20173;-60
2023/04/03 08:29:03;;;;;;;1999.90;999.90;;;;;;;3.98;100.00;95823.16;5062938;28;20217;-61
2023/04/03 08:31:29;;;;;;;1999.90;999.90;;;;;;;3.92;100.00;95821.06;5063495;28;20277;-60
2023/04/03 08:33:54;;;;;;;1999.90;999.90;;;;;;;3.95;100.00;95828.47;5066756;28;20171;-60
2023/04/03 08:36:23;;;;;;;1999.90;999.90;;;;;;;4.09;100.00;95839.63;5066482;28;20184;-59
2023/04/03 08:38:50;;;;;;;1999.90;999.90;;;;;;;3.91;100.00;95838.41;5066732;28;20200;-60
2023/04/03 08:41:35;;;;;;;1999.90;999.90;;;;;;;4.08;100.00;95838.81;5066719;28;20171;-60
2023/04/03 08:44:36;;;;;;;1999.90;999.90;;;;;;;4.11;100.00;95853.56;5067121;28;20166;-60
2023/04/03 08:47:25;;;;;;;1999.90;999.90;;;;;;;4.16;100.00;95862.19;5067223;28;20164;-60
2023/04/03 08:49:56;;;;;;;1999.90;999.90;;;;;;;3.97;100.00;95861.34;5066809;28;20188;-60
2023/04/03 08:52:28;;;;;;;1999.90;999.90;;;;;;;4.32;100.00;95865.66;5066502;28;20263;-60
2023/04/03 08:55:03;;;;;;;1999.90;999.90;;;;;;;4.38;100.00;95866.97;5066562;28;20225;-61
2023/04/03 08:57:44;;;;;;;1999.90;999.90;;;;;;;4.62;100.00;95865.94;5066814;28;20158;-61
2023/04/03 09:00:13;;;;;;;1999.90;999.90;;;;;;;4.42;100.00;95875.13;5066605;28;20256;-61
2023/04/03 09:02:46;;;;;;;1999.90;999.90;;;;;;;4.83;100.00;95877.22;5066290;28;20251;-60
2023/04/03 09:05:31;;;;;;;1999.90;999.90;;;;;;;4.70;100.00;95895.47;5066296;28;20219;-60
2023/04/03 09:08:02;;;;;;;1999.90;999.90;;;;;;;4.72;100.00;95885.09;5066843;28;20505;-60
2023/04/03 09:10:32;;;;;;;1999.90;999.90;;;;;;;4.97;100.00;95886.41;5066701;28;20189;-59
2023/04/03 09:13:06;;;;;;;1999.90;999.90;;;;;;;4.90;100.00;95885.47;5066659;28;20249;-59
2023/04/03 09:15:33;;;;;;;1999.90;999.90;;;;;;;4.77;100.00;95900.28;5066733;28;20168;-59
2023/04/03 09:18:10;;;;;;;1999.90;999.90;;;;;;;5.04;100.00;95902.00;5066542;28;20198;-61
2023/04/03 09:20:45;;;;;;;1999.90;999.90;;;;;;;5.28;100.00;95910.63;5066620;28;20192;-61
2023/04/03 09:23:36;;;;;;;1999.90;999.90;;;;;;;5.02;100.00;95925.94;5066184;28;20165;-61
2023/04/03 09:26:17;;;;;;;1999.90;999.90;;;;;;;5.15;100.00;95911.13;5066404;28;20164;-61
2023/04/03 09:28:44;;;;;;;1999.90;999.90;;;;;;;5.46;100.00;95916.41;5066073;28;20215;-61
2023/04/03 09:31:24;;;;;;;1999.90;999.90;;;;;;;6.02;100.00;95909.38;5065658;28;20197;-61
2023/04/03 09:33:55;;;;;;;1999.90;999.90;;;;;;;6.01;100.00;95915.94;5065957;28;20172;-60
2023/04/03 09:36:41;;;;;;;1999.90;999.90;;;;;;;5.91;100.00;95925.41;5065731;28;20180;-60
2023/04/03 09:39:15;;;;;;;1999.90;999.90;;;;;;;5.64;100.00;95925.66;5065559;28;20173;-60
2023/04/03 09:41:54;;;;;;;1999.90;999.90;;;;;;;5.58;100.00;95929.81;5066301;28;20222;-61
2023/04/03 09:44:26;;;;;;;1999.90;999.90;;;;;;;5.77;100.00;95924.34;5065745;28;20165;-61
2023/04/03 09:46:51;;;;;;;1999.90;999.90;;;;;;;5.77;100.00;95929.78;5066013;28;20165;-61
2023/04/03 09:49:18;;;;;;;1999.90;999.90;;;;;;;5.48;100.00;95922.25;5065697;28;20216;-60
2023/04/03 09:51:44;;;;;;;1999.90;999.90;;;;;;;5.43;100.00;95925.25;5065188;28;20236;-61
2023/04/03 09:54:32;;;;;;;1999.90;999.90;;;;;;;5.25;100.00;95918.69;5066098;28;20185;-60
2023/04/03 09:57:06;;;;;;;1999.90;999.90;;;;;;;5.38;100.00;95920.09;5066014;28;20180;-61
2023/04/03 09:59:32;;;;;;;1999.90;999.90;;;;;;;4.97;100.00;95939.75;5066024;28;20160;-61
2023/04/03 10:02:00;;;;;;;1999.90;999.90;;;;;;;5.22;100.00;95930.22;5065269;28;20192;-61
2023/04/03 10:04:36;;;;;;;1999.90;999.90;;;;;;;5.13;100.00;95930.44;5065519;28;20463;-61
2023/04/03 10:07:01;;;;;;;1999.90;999.90;;;;;;;5.27;100.00;95940.78;5065756;28;20352;-60
2023/04/03 10:09:32;;;;;;;1999.90;999.90;;;;;;;5.21;100.00;95934.09;5065659;28;20263;-60
2023/04/03 10:12:11;;;;;;;1999.90;999.90;;;;;;;5.12;100.00;95925.38;5064997;28;20403;-60
2023/04/03 10:14:58;;;;;;;1999.90;999.90;;;;;;;4.99;100.00;95932.06;5064955;28;20164;-60
2023/04/03 10:17:42;;;;;;;1999.90;999.90;;;;;;;4.99;100.00;95937.47;5065479;28;20169;-60
2023/04/03 10:20:32;;;;;;;1999.90;999.90;;;;;;;4.81;100.00;95930.91;5065404;28;20172;-59
2023/04/03 10:23:22;;;;;;;1999.90;999.90;;;;;;;4.65;100.00;95922.00;5065322;28;20169;-60
2023/04/03 10:25:48;;;;;;;1999.90;999.90;;;;;;;4.47;100.00;95921.59;5065259;28;20165;-60
2023/04/03 10:28:39;;;;;;;1999.90;999.90;;;;;;;4.41;100.00;95908.72;5064699;28;20243;-59
2023/04/03 10:31:27;;;;;;;1999.90;999.90;;;;;;;4.54;100.00;95883.13;5065138;28;20207;-59
2023/04/03 10:34:20;;;;;;;1999.90;999.90;;;;;;;4.69;100.00;95876.91;5065307;28;20222;-61
2023/04/03 10:37:07;;;;;;;1999.90;999.90;;;;;;;4.74;100.00;95882.03;5064477;28;20173;-60
2023/04/03 10:39:58;;;;;;;1999.90;999.90;;;;;;;4.80;100.00;95877.91;5065223;28;20201;-62
2023/04/03 10:42:28;;;;;;;1999.90;999.90;;;;;;;4.60;100.00;95870.91;5064983;28;20241;-59
2023/04/03 10:45:28;;;;;;;1999.90;999.90;;;;;;;4.24;100.00;95888.25;5064409;28;20169;-62
2023/04/03 10:48:11;;;;;;;1999.90;999.90;;;;;;;4.03;100.00;95862.63;5064593;28;20255;-62
2023/04/03 10:51:00;;;;;;;1999.90;999.90;;;;;;;3.87;100.00;95848.34;5064844;28;20203;-62
2023/04/03 10:53:41;;;;;;;1999.90;999.90;;;;;;;3.44;100.00;95836.50;5065097;28;20193;-61
2023/04/03 10:56:23;;;;;;;1999.90;999.90;;;;;;;3.16;100.00;95795.28;5063588;28;20172;-60
2023/04/03 10:58:57;;;;;;;1999.90;999.90;;;;;;;3.29;100.00;95753.59;5064191;28;20202;-60
2023/04/03 11:01:33;;;;;;;1999.90;999.90;;;;;;;3.30;100.00;95716.59;5064779;28;20173;-60